sensor_id;sensor_type;location;lat;lon;timestamp;P1;durP1;ratioP1;P2;durP2;ratioP2
12980;SDS011;6555;50.468;8.480;2022-08-01T00:04:08;0.60;;;0.60;;
12980;SDS011;6555;50.468;8.480;2022-08-01T00:09:13;1.17;;;0.80;;
12980;SDS011;6555;50.468;8.480;2022-08-01T00:14:24;1.63;;;0.77;;
12980;SDS011;6555;50.468;8.480;2022-08-01T00:19:33;0.65;;;0.65;;
12980;SDS011;6555;50.468;8.480;2022-08-01T00:24:37;0.90;;;0.63;;
12980;SDS011;6555;50.468;8.480;2022-08-01T00:29:40;1.17;;;0.90;;
12980;SDS011;6555;50.468;8.480;2022-08-01T00:35:03;0.57;;;0.55;;
12980;SDS011;6555;50.468;8.480;2022-08-01T00:40:09;0.90;;;0.63;;
12980;SDS011;6555;50.468;8.480;2022-08-01T00:45:12;0.88;;;0.68;;
12980;SDS011;6555;50.468;8.480;2022-08-01T00:50:15;0.80;;;0.80;;
12980;SDS011;6555;50.468;8.480;2022-08-01T00:55:19;0.80;;;0.80;;
12980;SDS011;6555;50.468;8.480;2022-08-01T01:00:23;0.77;;;0.75;;
12980;SDS011;6555;50.468;8.480;2022-08-01T01:05:27;0.80;;;0.60;;
12980;SDS011;6555;50.468;8.480;2022-08-01T01:10:40;1.17;;;0.70;;
12980;SDS011;6555;50.468;8.480;2022-08-01T01:15:47;0.47;;;0.47;;
12980;SDS011;6555;50.468;8.480;2022-08-01T01:20:56;0.52;;;0.52;;
12980;SDS011;6555;50.468;8.480;2022-08-01T01:26:19;0.52;;;0.52;;
12980;SDS011;6555;50.468;8.480;2022-08-01T01:31:30;1.35;;;0.47;;
12980;SDS011;6555;50.468;8.480;2022-08-01T01:36:35;1.02;;;0.60;;
12980;SDS011;6555;50.468;8.480;2022-08-01T01:41:39;1.10;;;0.70;;
12980;SDS011;6555;50.468;8.480;2022-08-01T01:46:45;0.60;;;0.60;;
12980;SDS011;6555;50.468;8.480;2022-08-01T01:51:56;0.75;;;0.63;;
12980;SDS011;6555;50.468;8.480;2022-08-01T01:57:04;0.93;;;0.80;;
12980;SDS011;6555;50.468;8.480;2022-08-01T02:02:14;0.90;;;0.90;;
12980;SDS011;6555;50.468;8.480;2022-08-01T02:07:24;1.17;;;0.63;;
12980;SDS011;6555;50.468;8.480;2022-08-01T02:12:30;1.17;;;1.13;;
12980;SDS011;6555;50.468;8.480;2022-08-01T02:17:39;0.65;;;0.60;;
12980;SDS011;6555;50.468;8.480;2022-08-01T02:22:46;1.02;;;0.52;;
12980;SDS011;6555;50.468;8.480;2022-08-01T02:27:55;1.00;;;0.80;;
12980;SDS011;6555;50.468;8.480;2022-08-01T02:33:07;0.50;;;0.50;;
12980;SDS011;6555;50.468;8.480;2022-08-01T02:38:16;0.60;;;0.60;;
12980;SDS011;6555;50.468;8.480;2022-08-01T02:43:23;0.80;;;0.80;;
12980;SDS011;6555;50.468;8.480;2022-08-01T02:48:30;0.70;;;0.70;;
12980;SDS011;6555;50.468;8.480;2022-08-01T02:53:37;0.95;;;0.80;;
12980;SDS011;6555;50.468;8.480;2022-08-01T02:58:45;0.93;;;0.73;;
12980;SDS011;6555;50.468;8.480;2022-08-01T03:03:52;2.30;;;0.88;;
12980;SDS011;6555;50.468;8.480;2022-08-01T03:08:55;0.57;;;0.57;;
12980;SDS011;6555;50.468;8.480;2022-08-01T03:14:00;2.47;;;0.82;;
12980;SDS011;6555;50.468;8.480;2022-08-01T03:19:08;0.90;;;0.90;;
12980;SDS011;6555;50.468;8.480;2022-08-01T03:24:13;0.70;;;0.70;;
12980;SDS011;6555;50.468;8.480;2022-08-01T03:29:18;1.77;;;1.00;;
12980;SDS011;6555;50.468;8.480;2022-08-01T03:34:26;0.88;;;0.88;;
12980;SDS011;6555;50.468;8.480;2022-08-01T03:39:30;0.88;;;0.88;;
12980;SDS011;6555;50.468;8.480;2022-08-01T03:44:37;1.05;;;0.93;;
12980;SDS011;6555;50.468;8.480;2022-08-01T03:49:44;1.15;;;1.05;;
12980;SDS011;6555;50.468;8.480;2022-08-01T03:54:49;2.03;;;1.15;;
12980;SDS011;6555;50.468;8.480;2022-08-01T03:59:56;1.20;;;1.10;;
12980;SDS011;6555;50.468;8.480;2022-08-01T04:05:02;1.33;;;1.00;;
12980;SDS011;6555;50.468;8.480;2022-08-01T04:10:06;1.20;;;1.05;;
12980;SDS011;6555;50.468;8.480;2022-08-01T04:15:09;1.10;;;1.10;;
12980;SDS011;6555;50.468;8.480;2022-08-01T04:20:14;1.30;;;1.20;;
12980;SDS011;6555;50.468;8.480;2022-08-01T04:25:19;2.80;;;1.33;;
12980;SDS011;6555;50.468;8.480;2022-08-01T04:30:26;1.20;;;1.10;;
12980;SDS011;6555;50.468;8.480;2022-08-01T04:35:33;1.13;;;1.02;;
12980;SDS011;6555;50.468;8.480;2022-08-01T04:40:58;1.00;;;0.98;;
12980;SDS011;6555;50.468;8.480;2022-08-01T04:46:10;1.00;;;0.95;;
12980;SDS011;6555;50.468;8.480;2022-08-01T04:51:15;0.90;;;0.90;;
12980;SDS011;6555;50.468;8.480;2022-08-01T04:56:23;1.20;;;1.10;;
12980;SDS011;6555;50.468;8.480;2022-08-01T05:01:26;1.40;;;1.10;;
12980;SDS011;6555;50.468;8.480;2022-08-01T05:06:30;4.03;;;1.25;;
12980;SDS011;6555;50.468;8.480;2022-08-01T05:11:33;1.20;;;1.10;;
12980;SDS011;6555;50.468;8.480;2022-08-01T05:16:36;1.58;;;1.48;;
12980;SDS011;6555;50.468;8.480;2022-08-01T05:21:40;1.63;;;1.42;;
12980;SDS011;6555;50.468;8.480;2022-08-01T05:26:43;3.88;;;1.38;;
12980;SDS011;6555;50.468;8.480;2022-08-01T05:31:48;1.58;;;1.40;;
12980;SDS011;6555;50.468;8.480;2022-08-01T05:36:52;1.20;;;1.10;;
12980;SDS011;6555;50.468;8.480;2022-08-01T05:41:58;1.33;;;1.23;;
12980;SDS011;6555;50.468;8.480;2022-08-01T05:47:01;1.73;;;1.38;;
12980;SDS011;6555;50.468;8.480;2022-08-01T05:52:06;1.38;;;1.27;;
12980;SDS011;6555;50.468;8.480;2022-08-01T05:57:09;3.22;;;1.42;;
12980;SDS011;6555;50.468;8.480;2022-08-01T06:02:12;2.63;;;1.30;;
12980;SDS011;6555;50.468;8.480;2022-08-01T06:07:17;1.67;;;1.33;;
12980;SDS011;6555;50.468;8.480;2022-08-01T06:12:20;3.13;;;1.33;;
12980;SDS011;6555;50.468;8.480;2022-08-01T06:17:23;1.55;;;1.45;;
12980;SDS011;6555;50.468;8.480;2022-08-01T06:22:28;1.85;;;1.65;;
12980;SDS011;6555;50.468;8.480;2022-08-01T06:27:33;2.42;;;1.77;;
12980;SDS011;6555;50.468;8.480;2022-08-01T06:32:36;2.10;;;1.85;;
12980;SDS011;6555;50.468;8.480;2022-08-01T06:37:41;2.53;;;2.33;;
12980;SDS011;6555;50.468;8.480;2022-08-01T06:42:45;2.00;;;1.83;;
12980;SDS011;6555;50.468;8.480;2022-08-01T06:47:48;2.00;;;1.90;;
12980;SDS011;6555;50.468;8.480;2022-08-01T06:52:52;2.15;;;1.85;;
12980;SDS011;6555;50.468;8.480;2022-08-01T06:57:55;2.30;;;2.10;;
12980;SDS011;6555;50.468;8.480;2022-08-01T07:02:58;2.22;;;2.03;;
12980;SDS011;6555;50.468;8.480;2022-08-01T07:08:03;2.10;;;1.92;;
12980;SDS011;6555;50.468;8.480;2022-08-01T07:13:06;2.15;;;1.95;;
12980;SDS011;6555;50.468;8.480;2022-08-01T07:18:09;2.00;;;1.80;;
12980;SDS011;6555;50.468;8.480;2022-08-01T07:23:13;2.33;;;2.03;;
12980;SDS011;6555;50.468;8.480;2022-08-01T07:28:23;2.25;;;2.03;;
12980;SDS011;6555;50.468;8.480;2022-08-01T07:33:26;2.17;;;1.98;;
12980;SDS011;6555;50.468;8.480;2022-08-01T07:38:50;2.25;;;2.00;;
12980;SDS011;6555;50.468;8.480;2022-08-01T07:43:53;2.47;;;2.28;;
12980;SDS011;6555;50.468;8.480;2022-08-01T07:49:02;2.95;;;2.13;;
12980;SDS011;6555;50.468;8.480;2022-08-01T07:54:06;3.00;;;2.00;;
12980;SDS011;6555;50.468;8.480;2022-08-01T07:59:09;2.05;;;1.90;;
12980;SDS011;6555;50.468;8.480;2022-08-01T08:04:12;2.22;;;2.05;;
12980;SDS011;6555;50.468;8.480;2022-08-01T08:09:16;1.90;;;1.80;;
12980;SDS011;6555;50.468;8.480;2022-08-01T08:14:19;2.63;;;2.15;;
12980;SDS011;6555;50.468;8.480;2022-08-01T08:19:33;2.25;;;2.05;;
12980;SDS011;6555;50.468;8.480;2022-08-01T08:24:40;2.20;;;2.00;;
12980;SDS011;6555;50.468;8.480;2022-08-01T08:29:46;1.95;;;1.85;;
12980;SDS011;6555;50.468;8.480;2022-08-01T08:34:49;1.95;;;1.75;;
12980;SDS011;6555;50.468;8.480;2022-08-01T08:39:54;1.70;;;1.60;;
12980;SDS011;6555;50.468;8.480;2022-08-01T08:44:57;1.88;;;1.77;;
12980;SDS011;6555;50.468;8.480;2022-08-01T08:50:03;2.20;;;2.00;;
12980;SDS011;6555;50.468;8.480;2022-08-01T08:55:09;2.08;;;1.88;;
12980;SDS011;6555;50.468;8.480;2022-08-01T09:00:15;2.53;;;2.33;;
12980;SDS011;6555;50.468;8.480;2022-08-01T09:05:18;2.38;;;2.17;;
12980;SDS011;6555;50.468;8.480;2022-08-01T09:10:40;2.10;;;2.00;;
12980;SDS011;6555;50.468;8.480;2022-08-01T09:15:44;2.10;;;2.00;;
12980;SDS011;6555;50.468;8.480;2022-08-01T09:20:48;2.20;;;2.00;;
12980;SDS011;6555;50.468;8.480;2022-08-01T09:25:52;2.17;;;1.98;;
12980;SDS011;6555;50.468;8.480;2022-08-01T09:31:04;2.33;;;2.10;;
12980;SDS011;6555;50.468;8.480;2022-08-01T09:36:09;2.30;;;2.10;;
12980;SDS011;6555;50.468;8.480;2022-08-01T09:41:14;2.15;;;2.00;;
12980;SDS011;6555;50.468;8.480;2022-08-01T09:46:19;2.60;;;2.35;;
12980;SDS011;6555;50.468;8.480;2022-08-01T09:51:30;2.60;;;2.40;;
12980;SDS011;6555;50.468;8.480;2022-08-01T09:56:57;3.95;;;2.25;;
12980;SDS011;6555;50.468;8.480;2022-08-01T10:02:11;2.53;;;2.33;;
12980;SDS011;6555;50.468;8.480;2022-08-01T10:07:17;2.65;;;2.45;;
12980;SDS011;6555;50.468;8.480;2022-08-01T10:12:29;2.55;;;2.35;;
12980;SDS011;6555;50.468;8.480;2022-08-01T10:17:37;2.50;;;2.30;;
12980;SDS011;6555;50.468;8.480;2022-08-01T10:22:50;2.75;;;2.55;;
12980;SDS011;6555;50.468;8.480;2022-08-01T10:27:57;2.97;;;2.78;;
12980;SDS011;6555;50.468;8.480;2022-08-01T10:33:03;2.95;;;2.75;;
12980;SDS011;6555;50.468;8.480;2022-08-01T10:38:07;2.47;;;2.38;;
12980;SDS011;6555;50.468;8.480;2022-08-01T10:43:16;2.63;;;2.42;;
12980;SDS011;6555;50.468;8.480;2022-08-01T10:48:24;2.60;;;2.40;;
12980;SDS011;6555;50.468;8.480;2022-08-01T10:53:31;2.75;;;2.55;;
12980;SDS011;6555;50.468;8.480;2022-08-01T10:58:46;2.63;;;2.42;;
12980;SDS011;6555;50.468;8.480;2022-08-01T11:09:23;2.45;;;2.25;;
12980;SDS011;6555;50.468;8.480;2022-08-01T11:20:31;2.17;;;2.08;;
12980;SDS011;6555;50.468;8.480;2022-08-01T11:31:26;1.98;;;1.88;;
12980;SDS011;6555;50.468;8.480;2022-08-01T11:36:38;2.10;;;2.00;;
12980;SDS011;6555;50.468;8.480;2022-08-01T11:42:16;2.00;;;1.90;;
12980;SDS011;6555;50.468;8.480;2022-08-01T11:52:47;1.92;;;1.83;;
12980;SDS011;6555;50.468;8.480;2022-08-01T11:57:59;2.17;;;1.98;;
12980;SDS011;6555;50.468;8.480;2022-08-01T12:03:07;1.90;;;1.80;;
12980;SDS011;6555;50.468;8.480;2022-08-01T12:08:26;1.90;;;1.80;;
12980;SDS011;6555;50.468;8.480;2022-08-01T12:13:37;1.45;;;1.35;;
12980;SDS011;6555;50.468;8.480;2022-08-01T12:18:43;1.45;;;1.35;;
12980;SDS011;6555;50.468;8.480;2022-08-01T12:23:59;1.67;;;1.42;;
12980;SDS011;6555;50.468;8.480;2022-08-01T12:29:02;1.73;;;1.60;;
12980;SDS011;6555;50.468;8.480;2022-08-01T12:34:25;4.05;;;1.45;;
12980;SDS011;6555;50.468;8.480;2022-08-01T12:39:31;1.40;;;1.30;;
12980;SDS011;6555;50.468;8.480;2022-08-01T12:44:35;1.38;;;1.27;;
12980;SDS011;6555;50.468;8.480;2022-08-01T12:49:39;1.55;;;1.45;;
12980;SDS011;6555;50.468;8.480;2022-08-01T12:55:04;1.27;;;1.15;;
12980;SDS011;6555;50.468;8.480;2022-08-01T13:00:11;1.20;;;1.05;;
12980;SDS011;6555;50.468;8.480;2022-08-01T13:05:18;1.60;;;1.50;;
12980;SDS011;6555;50.468;8.480;2022-08-01T13:10:25;2.45;;;1.33;;
12980;SDS011;6555;50.468;8.480;2022-08-01T13:15:29;1.50;;;1.40;;
12980;SDS011;6555;50.468;8.480;2022-08-01T13:20:35;1.50;;;1.40;;
12980;SDS011;6555;50.468;8.480;2022-08-01T13:25:48;1.48;;;1.25;;
12980;SDS011;6555;50.468;8.480;2022-08-01T13:30:53;3.22;;;1.77;;
12980;SDS011;6555;50.468;8.480;2022-08-01T13:35:58;1.40;;;1.30;;
12980;SDS011;6555;50.468;8.480;2022-08-01T13:41:01;3.35;;;1.60;;
12980;SDS011;6555;50.468;8.480;2022-08-01T13:46:05;1.52;;;1.42;;
12980;SDS011;6555;50.468;8.480;2022-08-01T13:51:10;2.63;;;1.35;;
12980;SDS011;6555;50.468;8.480;2022-08-01T13:56:23;2.00;;;1.65;;
12980;SDS011;6555;50.468;8.480;2022-08-01T14:01:26;1.77;;;1.67;;
12980;SDS011;6555;50.468;8.480;2022-08-01T14:06:36;1.80;;;1.70;;
12980;SDS011;6555;50.468;8.480;2022-08-01T14:11:39;1.48;;;1.38;;
12980;SDS011;6555;50.468;8.480;2022-08-01T14:16:46;1.60;;;1.50;;
12980;SDS011;6555;50.468;8.480;2022-08-01T14:21:50;1.50;;;1.40;;
12980;SDS011;6555;50.468;8.480;2022-08-01T14:26:53;1.80;;;1.70;;
12980;SDS011;6555;50.468;8.480;2022-08-01T14:31:56;1.63;;;1.52;;
12980;SDS011;6555;50.468;8.480;2022-08-01T14:37:01;1.40;;;1.30;;
12980;SDS011;6555;50.468;8.480;2022-08-01T14:42:04;1.10;;;1.10;;
12980;SDS011;6555;50.468;8.480;2022-08-01T14:47:08;1.50;;;1.40;;
12980;SDS011;6555;50.468;8.480;2022-08-01T14:52:23;1.50;;;1.40;;
12980;SDS011;6555;50.468;8.480;2022-08-01T14:57:26;1.38;;;1.27;;
12980;SDS011;6555;50.468;8.480;2022-08-01T15:02:30;1.55;;;1.30;;
12980;SDS011;6555;50.468;8.480;2022-08-01T15:07:34;1.60;;;1.50;;
12980;SDS011;6555;50.468;8.480;2022-08-01T15:12:53;1.50;;;1.40;;
12980;SDS011;6555;50.468;8.480;2022-08-01T15:17:57;1.85;;;1.42;;
12980;SDS011;6555;50.468;8.480;2022-08-01T15:23:01;1.50;;;1.33;;
12980;SDS011;6555;50.468;8.480;2022-08-01T15:28:04;1.45;;;1.35;;
12980;SDS011;6555;50.468;8.480;2022-08-01T15:33:07;1.35;;;1.25;;
12980;SDS011;6555;50.468;8.480;2022-08-01T15:38:11;1.60;;;1.50;;
12980;SDS011;6555;50.468;8.480;2022-08-01T15:43:14;1.35;;;1.25;;
12980;SDS011;6555;50.468;8.480;2022-08-01T15:48:17;1.65;;;1.33;;
12980;SDS011;6555;50.468;8.480;2022-08-01T15:53:22;1.42;;;1.33;;
12980;SDS011;6555;50.468;8.480;2022-08-01T15:58:25;1.40;;;1.30;;
12980;SDS011;6555;50.468;8.480;2022-08-01T16:03:28;1.42;;;1.33;;
12980;SDS011;6555;50.468;8.480;2022-08-01T16:08:32;1.50;;;1.40;;
12980;SDS011;6555;50.468;8.480;2022-08-01T16:13:35;1.60;;;1.50;;
12980;SDS011;6555;50.468;8.480;2022-08-01T16:18:38;1.70;;;1.60;;
12980;SDS011;6555;50.468;8.480;2022-08-01T16:23:43;1.70;;;1.60;;
12980;SDS011;6555;50.468;8.480;2022-08-01T16:28:47;1.45;;;1.35;;
12980;SDS011;6555;50.468;8.480;2022-08-01T16:33:52;1.48;;;1.38;;
12980;SDS011;6555;50.468;8.480;2022-08-01T16:39:04;1.20;;;1.02;;
12980;SDS011;6555;50.468;8.480;2022-08-01T16:44:08;1.40;;;1.30;;
12980;SDS011;6555;50.468;8.480;2022-08-01T16:49:10;1.60;;;1.50;;
12980;SDS011;6555;50.468;8.480;2022-08-01T16:54:16;1.55;;;1.45;;
12980;SDS011;6555;50.468;8.480;2022-08-01T16:59:26;1.42;;;1.33;;
12980;SDS011;6555;50.468;8.480;2022-08-01T17:11:25;1.33;;;1.23;;
12980;SDS011;6555;50.468;8.480;2022-08-01T17:16:29;1.35;;;1.25;;
12980;SDS011;6555;50.468;8.480;2022-08-01T17:21:32;1.13;;;1.02;;
12980;SDS011;6555;50.468;8.480;2022-08-01T17:26:40;1.38;;;1.27;;
12980;SDS011;6555;50.468;8.480;2022-08-01T17:31:43;1.80;;;1.30;;
12980;SDS011;6555;50.468;8.480;2022-08-01T17:36:46;1.20;;;1.10;;
12980;SDS011;6555;50.468;8.480;2022-08-01T17:41:50;1.10;;;1.00;;
12980;SDS011;6555;50.468;8.480;2022-08-01T17:46:53;1.13;;;1.05;;
12980;SDS011;6555;50.468;8.480;2022-08-01T17:51:56;0.88;;;0.88;;
12980;SDS011;6555;50.468;8.480;2022-08-01T17:57:01;1.10;;;1.10;;
12980;SDS011;6555;50.468;8.480;2022-08-01T18:02:10;1.00;;;1.00;;
12980;SDS011;6555;50.468;8.480;2022-08-01T18:07:14;0.80;;;0.80;;
12980;SDS011;6555;50.468;8.480;2022-08-01T18:12:21;0.90;;;0.90;;
12980;SDS011;6555;50.468;8.480;2022-08-01T18:17:26;1.55;;;1.10;;
12980;SDS011;6555;50.468;8.480;2022-08-01T18:22:30;2.92;;;1.00;;
12980;SDS011;6555;50.468;8.480;2022-08-01T18:27:37;0.90;;;0.90;;
12980;SDS011;6555;50.468;8.480;2022-08-01T18:33:01;0.80;;;0.80;;
12980;SDS011;6555;50.468;8.480;2022-08-01T18:38:16;0.90;;;0.90;;
12980;SDS011;6555;50.468;8.480;2022-08-01T18:43:22;0.90;;;0.90;;
12980;SDS011;6555;50.468;8.480;2022-08-01T18:48:26;0.90;;;0.90;;
12980;SDS011;6555;50.468;8.480;2022-08-01T18:53:30;1.15;;;0.80;;
12980;SDS011;6555;50.468;8.480;2022-08-01T18:58:34;2.55;;;0.77;;
12980;SDS011;6555;50.468;8.480;2022-08-01T19:03:37;0.70;;;0.70;;
12980;SDS011;6555;50.468;8.480;2022-08-01T19:08:43;0.90;;;0.90;;
12980;SDS011;6555;50.468;8.480;2022-08-01T19:13:47;1.10;;;1.00;;
12980;SDS011;6555;50.468;8.480;2022-08-01T19:18:50;1.45;;;1.10;;
12980;SDS011;6555;50.468;8.480;2022-08-01T19:23:54;0.77;;;0.77;;
12980;SDS011;6555;50.468;8.480;2022-08-01T19:29:18;1.00;;;0.80;;
12980;SDS011;6555;50.468;8.480;2022-08-01T19:34:23;0.75;;;0.70;;
12980;SDS011;6555;50.468;8.480;2022-08-01T19:39:27;0.77;;;0.77;;
12980;SDS011;6555;50.468;8.480;2022-08-01T19:44:31;0.70;;;0.70;;
12980;SDS011;6555;50.468;8.480;2022-08-01T19:49:34;0.73;;;0.70;;
12980;SDS011;6555;50.468;8.480;2022-08-01T19:54:40;0.60;;;0.60;;
12980;SDS011;6555;50.468;8.480;2022-08-01T19:59:45;0.73;;;0.73;;
12980;SDS011;6555;50.468;8.480;2022-08-01T20:04:48;0.75;;;0.70;;
12980;SDS011;6555;50.468;8.480;2022-08-01T20:09:52;0.80;;;0.80;;
12980;SDS011;6555;50.468;8.480;2022-08-01T20:14:57;0.77;;;0.77;;
12980;SDS011;6555;50.468;8.480;2022-08-01T20:20:01;1.05;;;1.00;;
12980;SDS011;6555;50.468;8.480;2022-08-01T20:25:04;1.00;;;1.00;;
12980;SDS011;6555;50.468;8.480;2022-08-01T20:30:11;0.80;;;0.80;;
12980;SDS011;6555;50.468;8.480;2022-08-01T20:35:14;0.80;;;0.80;;
12980;SDS011;6555;50.468;8.480;2022-08-01T20:40:37;0.73;;;0.73;;
12980;SDS011;6555;50.468;8.480;2022-08-01T20:45:45;1.15;;;0.90;;
12980;SDS011;6555;50.468;8.480;2022-08-01T20:50:48;0.70;;;0.70;;
12980;SDS011;6555;50.468;8.480;2022-08-01T20:56:10;0.82;;;0.80;;
12980;SDS011;6555;50.468;8.480;2022-08-01T21:01:20;0.60;;;0.60;;
12980;SDS011;6555;50.468;8.480;2022-08-01T21:06:27;1.27;;;0.70;;
12980;SDS011;6555;50.468;8.480;2022-08-01T21:11:38;0.50;;;0.50;;
12980;SDS011;6555;50.468;8.480;2022-08-01T21:16:45;0.60;;;0.60;;
12980;SDS011;6555;50.468;8.480;2022-08-01T21:21:59;0.55;;;0.55;;
12980;SDS011;6555;50.468;8.480;2022-08-01T21:27:11;0.65;;;0.65;;
12980;SDS011;6555;50.468;8.480;2022-08-01T21:32:18;0.90;;;0.90;;
12980;SDS011;6555;50.468;8.480;2022-08-01T21:37:23;0.85;;;0.85;;
12980;SDS011;6555;50.468;8.480;2022-08-01T21:42:27;0.73;;;0.73;;
12980;SDS011;6555;50.468;8.480;2022-08-01T21:47:31;0.57;;;0.47;;
12980;SDS011;6555;50.468;8.480;2022-08-01T21:52:37;2.20;;;0.70;;
12980;SDS011;6555;50.468;8.480;2022-08-01T21:57:50;0.60;;;0.60;;
12980;SDS011;6555;50.468;8.480;2022-08-01T22:03:07;0.60;;;0.60;;
12980;SDS011;6555;50.468;8.480;2022-08-01T22:08:23;1.67;;;0.52;;
12980;SDS011;6555;50.468;8.480;2022-08-01T22:13:30;0.52;;;0.52;;
12980;SDS011;6555;50.468;8.480;2022-08-01T22:18:36;0.80;;;0.80;;
12980;SDS011;6555;50.468;8.480;2022-08-01T22:23:40;0.73;;;0.60;;
12980;SDS011;6555;50.468;8.480;2022-08-01T22:28:44;0.63;;;0.63;;
12980;SDS011;6555;50.468;8.480;2022-08-01T22:33:52;1.85;;;0.88;;
12980;SDS011;6555;50.468;8.480;2022-08-01T22:38:56;0.75;;;0.70;;
12980;SDS011;6555;50.468;8.480;2022-08-01T22:44:03;0.70;;;0.70;;
12980;SDS011;6555;50.468;8.480;2022-08-01T22:49:13;0.75;;;0.75;;
12980;SDS011;6555;50.468;8.480;2022-08-01T22:54:27;0.63;;;0.63;;
12980;SDS011;6555;50.468;8.480;2022-08-01T22:59:36;0.60;;;0.60;;
12980;SDS011;6555;50.468;8.480;2022-08-01T23:04:49;1.02;;;0.90;;
12980;SDS011;6555;50.468;8.480;2022-08-01T23:09:58;0.60;;;0.60;;
12980;SDS011;6555;50.468;8.480;2022-08-01T23:15:05;0.80;;;0.80;;
12980;SDS011;6555;50.468;8.480;2022-08-01T23:20:11;0.70;;;0.70;;
12980;SDS011;6555;50.468;8.480;2022-08-01T23:25:14;0.50;;;0.50;;
12980;SDS011;6555;50.468;8.480;2022-08-01T23:30:17;0.80;;;0.80;;
12980;SDS011;6555;50.468;8.480;2022-08-01T23:35:22;0.60;;;0.60;;
12980;SDS011;6555;50.468;8.480;2022-08-01T23:40:25;0.82;;;0.73;;
12980;SDS011;6555;50.468;8.480;2022-08-01T23:45:28;1.70;;;1.00;;
12980;SDS011;6555;50.468;8.480;2022-08-01T23:50:53;1.10;;;0.90;;
12980;SDS011;6555;50.468;8.480;2022-08-01T23:55:57;0.57;;;0.57;;
